createdAt,value
2017-03-18T00:10:10.433Z,0
2017-03-18T00:20:24.721Z,0
2017-03-18T00:30:38.063Z,0
2017-03-18T00:40:52.786Z,0
2017-03-18T00:51:06.216Z,0
2017-03-18T01:01:19.464Z,0
2017-03-18T01:11:33.785Z,0
2017-03-18T01:21:48.047Z,0
2017-03-18T01:32:01.255Z,0
2017-03-18T01:42:14.757Z,0
2017-03-18T01:52:27.979Z,0
2017-03-18T02:02:41.295Z,0
2017-03-18T02:12:56.072Z,0
2017-03-18T02:23:09.626Z,0
2017-03-18T02:33:23.029Z,0
2017-03-18T02:43:36.073Z,0
2017-03-18T02:53:50.537Z,0
2017-03-18T03:04:05.450Z,0
2017-03-18T03:14:18.815Z,0
2017-03-18T03:24:33.038Z,0
2017-03-18T03:34:46.824Z,0
2017-03-18T03:45:00.625Z,0
2017-03-18T03:55:14.954Z,0
2017-03-18T04:05:28.127Z,0
2017-03-18T04:15:41.372Z,0
2017-03-18T04:25:56.298Z,0
2017-03-18T04:36:10.907Z,0
2017-03-18T04:46:24.076Z,0
2017-03-18T04:56:39.049Z,0
2017-03-18T05:06:53.927Z,0
2017-03-18T05:17:07.431Z,4
2017-03-18T05:27:21.766Z,24
2017-03-18T05:37:35.110Z,76
2017-03-18T05:47:49.219Z,156
2017-03-18T05:58:02.520Z,392
2017-03-18T06:08:16.342Z,684
2017-03-18T06:18:29.697Z,624
2017-03-18T06:28:44.715Z,756
2017-03-18T06:38:59.387Z,2492
2017-03-18T06:49:13.754Z,1876
2017-03-18T06:59:27.849Z,2780
2017-03-18T07:09:41.516Z,3548
2017-03-18T07:19:54.888Z,3052
2017-03-18T07:30:09.407Z,5392
2017-03-18T07:40:23.056Z,5896
2017-03-18T07:50:37.131Z,5112
2017-03-18T08:00:52.195Z,5092
2017-03-18T08:11:07.146Z,4888
2017-03-18T08:31:35.209Z,4012
2017-03-18T08:41:49.506Z,2172
2017-03-18T08:52:03.117Z,1920
2017-03-18T09:02:16.254Z,4108
2017-03-18T09:12:29.734Z,18112
2017-03-18T09:22:43.893Z,12804
2017-03-18T09:32:58.615Z,26656
2017-03-18T09:43:13.774Z,13156
2017-03-18T09:53:28.454Z,5840
2017-03-18T10:03:41.983Z,18176
2017-03-18T10:13:55.189Z,28576
2017-03-18T10:24:09.910Z,29280
2017-03-18T10:34:24.149Z,19200
2017-03-18T10:44:39.014Z,25792
2017-03-18T10:54:53.013Z,34208
2017-03-18T11:05:06.344Z,29312
2017-03-18T11:15:21.222Z,30592
2017-03-18T11:25:35.570Z,29344
2017-03-18T11:35:49.650Z,18976
2017-03-18T11:46:03.450Z,32000
2017-03-18T11:56:17.016Z,18304
2017-03-18T12:06:32.145Z,13316
2017-03-18T12:16:45.834Z,32352
2017-03-18T12:26:59.311Z,37504
2017-03-18T12:37:12.890Z,25120
2017-03-18T12:47:28.195Z,28096
2017-03-18T12:57:42.914Z,14960
2017-03-18T13:07:56.804Z,23456
2017-03-18T13:18:10.275Z,22368
2017-03-18T13:28:24.165Z,6928
2017-03-18T13:38:39.236Z,9116
2017-03-18T13:48:53.550Z,15648
2017-03-18T13:59:07.510Z,12936
2017-03-18T14:09:22.290Z,9604
2017-03-18T14:19:37.247Z,6508
2017-03-18T14:29:50.682Z,16188
2017-03-18T14:40:05.112Z,7260
2017-03-18T14:50:19.287Z,5760
2017-03-18T15:00:32.625Z,8164
2017-03-18T15:10:47.256Z,9988
2017-03-18T15:21:01.319Z,11744
2017-03-18T15:31:16.034Z,12108
2017-03-18T15:41:30.567Z,8972
2017-03-18T15:51:44.712Z,7676
2017-03-18T16:01:59.119Z,4152
2017-03-18T16:12:13.969Z,4396
2017-03-18T16:22:27.200Z,3312
2017-03-18T16:32:42.095Z,2444
2017-03-18T16:42:55.381Z,2068
2017-03-18T16:53:08.638Z,1484
2017-03-18T17:03:22.762Z,1432
2017-03-18T17:13:37.721Z,1116
2017-03-18T17:23:52.673Z,328
2017-03-18T17:34:05.958Z,128
2017-03-18T17:44:19.271Z,60
2017-03-18T17:54:33.743Z,12
2017-03-18T18:04:46.931Z,4
2017-03-18T18:15:01.040Z,0
2017-03-18T18:25:14.194Z,0
2017-03-18T18:35:28.798Z,0
2017-03-18T18:45:43.159Z,0
2017-03-18T18:55:56.659Z,0
2017-03-18T19:06:10.628Z,0
2017-03-18T19:16:24.961Z,0
2017-03-18T19:26:38.651Z,0
2017-03-18T19:36:53.007Z,0
2017-03-18T19:47:06.263Z,0
2017-03-18T19:57:19.720Z,0
2017-03-18T20:07:34.164Z,0
2017-03-18T20:17:47.745Z,0
2017-03-18T20:28:02.656Z,0
2017-03-18T20:38:16.482Z,0
2017-03-18T20:48:31.265Z,0
2017-03-18T20:58:45.428Z,0
2017-03-18T21:09:00.288Z,0
2017-03-18T21:19:15.306Z,0
2017-03-18T21:29:29.233Z,0
2017-03-18T21:39:43.437Z,0
2017-03-18T21:49:56.855Z,0
2017-03-18T22:00:11.553Z,0
2017-03-18T22:10:25.572Z,0
2017-03-18T22:20:39.578Z,0
2017-03-18T22:30:54.192Z,0
2017-03-18T22:41:09.002Z,0
2017-03-18T22:51:22.193Z,0
2017-03-18T23:01:35.618Z,0
2017-03-18T23:11:50.338Z,0
2017-03-18T23:22:04.048Z,0
2017-03-18T23:32:18.205Z,0
2017-03-18T23:42:33.009Z,0
2017-03-18T23:52:47.634Z,0
